Terminal Aerodrome Forecast
Issued by NWS

Home | Current Version | Previous Version | Text Only | Print | Product List | Glossary On
Versions: 1 2 3 4 5 6 7 8 9 10 11 12 13 14 15
480
FTUS42 KMLB 231124
TAFFPR
TAF
KFPR 231124Z 2312/2412 25012G19KT P6SM BKN040
      TEMPO 2312/2314 27015G29KT 3SM RA OVC035
     FM231500 26022G30KT P6SM BKN045
     FM232300 28014G20KT P6SM FEW040=

USA.gov is the U.S. government's official web portal to all federal, state and local government web resources and services.